Time;durP1;ratioP1;P1;durP2;ratioP2;P2;SDS_P1;SDS_P2;PMS_P1;PMS_P2;Temp;Humidity;BMP_temperature;BMP_pressure;BME280_temperature;BME280_humidity;BME280_pressure;Samples;Min_cycle;Max_cycle;Signal;HPM_P1;HPM_P2
2022/01/12 00:00:23;;;;;;;38.40;19.43;;;;;;;3.18;91.03;103462.38;5072490;28;20243;-72
2022/01/12 00:02:49;;;;;;;37.03;18.20;;;;;;;3.20;91.34;103468.50;5070923;28;20189;-72
2022/01/12 00:05:16;;;;;;;38.60;19.43;;;;;;;3.20;90.78;103465.06;5072361;28;20181;-72
2022/01/12 00:07:42;;;;;;;35.47;19.43;;;;;;;3.21;90.91;103464.28;5072403;28;20196;-73
2022/01/12 00:10:08;;;;;;;36.33;18.17;;;;;;;3.22;91.29;103449.25;5072303;28;20189;-72
2022/01/12 00:12:33;;;;;;;36.70;19.43;;;;;;;3.24;90.73;103454.47;5071903;28;20219;-73
2022/01/12 00:14:59;;;;;;;34.50;19.30;;;;;;;3.24;90.42;103452.81;5072398;28;20181;-73
2022/01/12 00:17:24;;;;;;;38.20;21.00;;;;;;;3.26;90.15;103463.09;5072294;28;20236;-73
2022/01/12 00:19:49;;;;;;;35.20;17.87;;;;;;;3.26;90.79;103458.03;5070336;28;20578;-71
2022/01/12 00:22:15;;;;;;;33.90;17.43;;;;;;;3.27;90.27;103449.69;5065994;28;20197;-73
2022/01/12 00:25:04;;;;;;;31.20;17.73;;;;;;;3.27;90.27;103458.16;5056586;28;20209;-73
2022/01/12 00:35:33;;;;;;;31.13;16.87;;;;;;;3.31;90.34;103466.94;5070327;28;20201;-72
2022/01/12 00:37:58;;;;;;;29.60;16.27;;;;;;;3.31;91.00;103483.00;5068943;28;20201;-73
2022/01/12 00:40:24;;;;;;;27.40;16.83;;;;;;;3.32;90.38;103479.69;5057980;28;20181;-73
2022/01/12 00:42:49;;;;;;;30.70;16.80;;;;;;;3.34;90.40;103475.69;5051849;28;20178;-72
2022/01/12 00:45:14;;;;;;;28.43;16.13;;;;;;;3.37;90.66;103485.19;5068244;28;20200;-73
2022/01/12 00:47:40;;;;;;;31.17;16.87;;;;;;;3.35;90.18;103487.59;5071490;28;20586;-73
2022/01/12 00:50:06;;;;;;;30.93;16.90;;;;;;;3.35;90.71;103487.59;5070084;28;20224;-73
2022/01/12 00:52:31;;;;;;;31.00;15.87;;;;;;;3.35;91.54;103492.66;5062035;28;20198;-73
2022/01/12 00:54:56;;;;;;;28.07;15.53;;;;;;;3.33;90.64;103488.19;5056803;28;20190;-73
2022/01/12 00:57:22;;;;;;;25.80;14.83;;;;;;;3.36;90.66;103493.56;5059581;28;20201;-74
2022/01/12 00:59:47;;;;;;;24.23;14.37;;;;;;;3.38;90.78;103492.03;5070125;28;20234;-73
2022/01/12 01:02:13;;;;;;;28.10;15.10;;;;;;;3.40;90.50;103483.81;5070120;28;20181;-71
2022/01/12 01:04:38;;;;;;;24.53;14.97;;;;;;;3.42;90.07;103487.41;5071543;28;20328;-71
2022/01/12 01:07:04;;;;;;;26.77;14.50;;;;;;;3.46;89.94;103481.88;5070212;28;20283;-73
2022/01/12 01:09:31;;;;;;;25.07;14.10;;;;;;;3.49;89.01;103486.31;5071173;28;20186;-73
2022/01/12 01:11:56;;;;;;;25.30;14.60;;;;;;;3.50;88.75;103488.09;5051669;28;20177;-73
2022/01/12 01:14:36;;;;;;;26.80;13.87;;;;;;;3.53;88.08;103501.91;5069954;28;20231;-72
2022/01/12 01:25:31;;;;;;;21.33;11.93;;;;;;;3.62;87.18;103517.94;5054517;28;20262;-73
2022/01/12 01:28:01;;;;;;;27.20;12.83;;;;;;;3.64;86.56;103515.53;5092034;28;20612;-73
2022/01/12 01:30:27;;;;;;;25.90;12.77;;;;;;;3.67;86.20;103514.16;5089767;28;20220;-73
2022/01/12 01:32:55;;;;;;;19.83;12.00;;;;;;;3.68;85.96;103520.13;5089730;28;20176;-73
2022/01/12 01:35:21;;;;;;;22.07;13.33;;;;;;;3.68;86.87;103520.13;5072887;28;20602;-72
2022/01/12 01:37:46;;;;;;;23.87;14.37;;;;;;;3.68;87.50;103518.47;5089667;28;20192;-72
2022/01/12 01:40:13;;;;;;;25.57;13.43;;;;;;;3.66;87.12;103509.84;5089387;28;20180;-72
2022/01/12 01:42:54;;;;;;;22.93;13.80;;;;;;;3.66;87.85;103514.00;5083675;28;20674;-73
2022/01/12 01:53:54;;;;;;;26.40;15.17;;;;;;;3.62;89.42;103517.03;5083115;28;20191;-73
2022/01/12 01:56:22;;;;;;;27.73;15.30;;;;;;;3.64;89.22;103513.00;5089155;28;20216;-72
2022/01/12 01:58:48;;;;;;;25.10;15.73;;;;;;;3.62;89.76;103507.78;5079149;28;20186;-73
2022/01/12 02:01:14;;;;;;;25.97;15.70;;;;;;;3.60;89.00;103506.78;5061547;28;20191;-72
2022/01/12 02:03:49;;;;;;;22.47;15.23;;;;;;;3.61;89.14;103508.56;5048984;28;20207;-73
2022/01/12 02:06:16;;;;;;;25.17;16.23;;;;;;;3.61;89.78;103506.03;5083193;28;20610;-73
2022/01/12 02:08:45;;;;;;;23.70;15.60;;;;;;;3.60;89.67;103516.91;5088826;28;20180;-73
2022/01/12 02:11:29;;;;;;;27.70;17.53;;;;;;;3.63;89.52;103523.91;5089120;28;20177;-73
2022/01/12 02:13:59;;;;;;;27.73;17.87;;;;;;;3.63;89.29;103526.44;5088993;28;20180;-73
2022/01/12 02:16:36;;;;;;;28.23;17.27;;;;;;;3.62;89.66;103514.50;5087043;28;20220;-73
2022/01/12 02:40:38;;;;;;;33.10;21.87;;;;;;;3.58;90.54;103538.66;5069610;28;20684;-73
2022/01/12 02:43:14;;;;;;;32.33;20.77;;;;;;;3.56;90.67;103537.66;5068199;28;20212;-73
2022/01/12 02:50:41;;;;;;;33.93;22.03;;;;;;;3.57;91.75;103538.50;5069335;28;20200;-73
2022/01/12 02:54:13;;;;;;;37.00;23.40;;;;;;;3.52;91.96;103547.34;5061042;28;20173;-73
2022/01/12 02:56:39;;;;;;;37.00;23.67;;;;;;;3.53;91.99;103550.03;5065889;28;20614;-73
2022/01/12 02:59:06;;;;;;;36.27;24.33;;;;;;;3.52;92.25;103545.72;5069258;28;20190;-73
2022/01/12 03:04:03;;;;;;;41.83;27.07;;;;;;;3.49;93.75;103553.03;5068038;28;20217;-72
2022/01/12 03:06:34;;;;;;;45.80;27.20;;;;;;;3.46;93.36;103547.69;5067993;28;20209;-72
2022/01/12 03:09:00;;;;;;;44.17;28.40;;;;;;;3.45;93.65;103556.03;5067619;28;20283;-73
2022/01/12 03:11:28;;;;;;;43.27;27.93;;;;;;;3.46;94.01;103551.84;5068338;28;20267;-73
2022/01/12 03:13:56;;;;;;;49.33;30.23;;;;;;;3.44;94.41;103556.78;5067523;28;20782;-73
2022/01/12 03:16:25;;;;;;;43.40;28.80;;;;;;;3.46;94.75;103547.69;5066807;28;20258;-73
2022/01/12 03:18:54;;;;;;;48.40;30.63;;;;;;;3.44;95.17;103548.28;5066710;28;20217;-73
2022/01/12 03:21:23;;;;;;;45.87;30.47;;;;;;;3.43;95.07;103544.88;5066928;28;20181;-73
2022/01/12 03:23:49;;;;;;;58.50;32.63;;;;;;;3.40;95.25;103547.13;5066990;28;20209;-73
2022/01/12 03:26:15;;;;;;;47.27;30.30;;;;;;;3.40;94.83;103544.59;5066815;28;20215;-73
2022/01/12 03:28:51;;;;;;;51.47;30.90;;;;;;;3.38;95.04;103543.56;5066722;28;20654;-73
2022/01/12 03:31:20;;;;;;;53.33;31.47;;;;;;;3.39;95.00;103550.41;5067005;28;20184;-73
2022/01/12 03:36:27;;;;;;;48.33;32.80;;;;;;;3.41;95.51;103550.56;5068088;28;20743;-73
2022/01/12 03:38:58;;;;;;;56.33;33.10;;;;;;;3.40;94.99;103548.78;5066718;28;20208;-72
2022/01/12 03:41:26;;;;;;;53.43;33.73;;;;;;;3.42;94.94;103553.22;5066618;28;20200;-73
2022/01/12 03:43:52;;;;;;;54.77;33.73;;;;;;;3.40;95.00;103547.13;5065761;28;20201;-72
2022/01/12 03:46:22;;;;;;;59.63;35.03;;;;;;;3.39;95.56;103542.81;5049876;28;20777;-73
2022/01/12 03:48:48;;;;;;;54.23;35.03;;;;;;;3.40;95.11;103557.25;5066014;28;20955;-73
2022/01/12 03:51:13;;;;;;;54.63;34.93;;;;;;;3.42;95.71;103553.22;5050362;28;20271;-73
2022/01/12 03:53:39;;;;;;;61.80;35.97;;;;;;;3.40;95.64;103552.19;5065551;28;20658;-72
2022/01/12 03:56:04;;;;;;;63.20;35.00;;;;;;;3.41;95.18;103553.09;5049583;28;20220;-73
2022/01/12 03:58:31;;;;;;;63.70;35.77;;;;;;;3.41;95.44;103548.03;5066268;28;20196;-72
2022/01/12 04:00:57;;;;;;;57.70;35.87;;;;;;;3.41;95.64;103548.03;5068854;28;20187;-72
2022/01/12 04:03:25;;;;;;;62.00;36.83;;;;;;;3.40;96.30;103543.72;5066493;28;20201;-73
2022/01/12 04:08:35;;;;;;;69.87;37.87;;;;;;;3.39;96.21;103554.56;5068421;28;20618;-73
2022/01/12 04:11:01;;;;;;;68.57;38.10;;;;;;;3.39;96.61;103539.38;5071411;28;20189;-73
2022/01/12 04:13:30;;;;;;;70.03;40.23;;;;;;;3.40;96.50;103531.06;5069946;28;20181;-73
2022/01/12 04:16:05;;;;;;;71.50;40.50;;;;;;;3.32;97.01;103534.53;5069068;28;20203;-73
2022/01/12 04:18:31;;;;;;;71.57;41.00;;;;;;;3.32;97.45;103534.53;5069321;28;20184;-72
2022/01/12 04:21:00;;;;;;;78.37;42.77;;;;;;;3.34;97.16;103540.59;5069993;28;20181;-73
2022/01/12 04:23:25;;;;;;;77.97;41.63;;;;;;;3.32;98.08;103547.19;5069858;28;20212;-73
2022/01/12 04:25:53;;;;;;;77.90;42.70;;;;;;;3.30;97.69;103536.00;5071079;28;20642;-73
2022/01/12 04:28:21;;;;;;;79.10;44.43;;;;;;;3.34;97.75;103540.59;5069568;28;20202;-73
2022/01/12 04:30:48;;;;;;;83.40;44.93;;;;;;;3.35;98.41;103545.81;5069730;28;20185;-73
2022/01/12 04:33:14;;;;;;;87.70;44.23;;;;;;;3.34;98.11;103553.25;5069533;28;20639;-72
2022/01/12 04:35:47;;;;;;;93.67;47.37;;;;;;;3.34;98.52;103558.31;5069677;28;20177;-72
2022/01/12 04:38:13;;;;;;;91.80;44.97;;;;;;;3.32;97.92;103565.78;5069353;28;20616;-73
2022/01/12 04:40:38;;;;;;;88.10;44.60;;;;;;;3.37;98.16;103553.56;5069626;28;20185;-73
2022/01/12 04:43:05;;;;;;;88.33;44.20;;;;;;;3.37;98.09;103556.09;5069717;28;20212;-73
2022/01/12 04:48:09;;;;;;;92.97;46.23;;;;;;;3.39;98.61;103546.97;5069062;28;20204;-73
2022/01/12 04:50:37;;;;;;;89.63;44.00;;;;;;;3.38;98.61;103543.56;5057786;28;20197;-73
2022/01/12 04:53:04;;;;;;;86.80;45.10;;;;;;;3.39;98.32;103550.41;5050472;28;20262;-72
2022/01/12 04:55:30;;;;;;;86.10;43.53;;;;;;;3.38;98.03;103546.09;5071240;28;20644;-73
2022/01/12 04:57:55;;;;;;;88.43;43.90;;;;;;;3.37;98.61;103546.88;5090160;28;20242;-71
2022/01/12 05:00:22;;;;;;;89.00;44.07;;;;;;;3.38;98.83;103551.16;5075644;28;20272;-72
2022/01/12 05:13:36;;;;;;;88.50;44.13;;;;;;;3.38;98.57;103547.72;5056333;28;20188;-72
2022/01/12 05:16:03;;;;;;;93.40;45.40;;;;;;;3.39;99.19;103549.50;5049973;28;20245;-73
2022/01/12 05:18:31;;;;;;;81.13;44.40;;;;;;;3.36;98.79;103554.31;5054930;28;20794;-73
2022/01/12 05:20:58;;;;;;;95.70;45.67;;;;;;;3.35;98.92;103561.00;5057561;28;20185;-73
2022/01/12 05:23:24;;;;;;;86.20;45.03;;;;;;;3.36;99.23;103557.72;5055796;28;20232;-72
2022/01/12 05:25:52;;;;;;;85.67;44.20;;;;;;;3.36;99.10;103551.78;5061751;28;20189;-72
2022/01/12 05:28:19;;;;;;;99.60;47.90;;;;;;;3.35;99.11;103550.88;5057509;28;20803;-73
2022/01/12 05:30:45;;;;;;;90.93;46.73;;;;;;;3.38;99.15;103547.72;5058233;28;20199;-73
2022/01/12 05:33:11;;;;;;;94.27;47.13;;;;;;;3.37;99.52;103549.41;5056264;28;20202;-73
2022/01/12 05:35:37;;;;;;;92.70;43.90;;;;;;;3.37;99.36;103545.97;5051984;28;20178;-73
2022/01/12 05:38:08;;;;;;;90.10;45.23;;;;;;;3.38;99.39;103547.72;5060382;28;20212;-73
2022/01/12 05:40:33;;;;;;;93.53;44.80;;;;;;;3.36;98.91;103549.25;5059285;28;20186;-73
2022/01/12 05:43:02;;;;;;;93.37;45.43;;;;;;;3.37;98.83;103561.16;5055808;28;20185;-73
2022/01/12 05:45:29;;;;;;;90.13;46.53;;;;;;;3.37;98.82;103557.00;5051863;28;20185;-73
2022/01/12 05:50:23;;;;;;;92.40;45.13;;;;;;;3.40;98.85;103561.44;5064744;28;20608;-73
2022/01/12 05:52:48;;;;;;;87.03;43.53;;;;;;;3.40;98.46;103562.31;5056084;28;20242;-73
2022/01/12 05:55:14;;;;;;;88.27;43.50;;;;;;;3.38;98.67;103568.00;5054715;28;20653;-73
2022/01/12 05:57:41;;;;;;;83.80;42.17;;;;;;;3.40;98.69;103561.44;5055562;28;20224;-73
2022/01/12 06:00:10;;;;;;;87.47;43.93;;;;;;;3.39;98.56;103563.06;5055068;28;20240;-73
2022/01/12 06:02:46;;;;;;;80.87;42.73;;;;;;;3.42;98.27;103565.00;5053875;28;20189;-73
2022/01/12 06:05:14;;;;;;;82.50;44.23;;;;;;;3.39;98.51;103557.09;5054036;28;20182;-73
2022/01/12 06:07:43;;;;;;;82.50;42.40;;;;;;;3.39;99.01;103557.09;5057936;28;20224;-73
2022/01/12 06:10:09;;;;;;;84.77;43.10;;;;;;;3.39;98.55;103555.47;5045514;28;20185;-73
2022/01/12 06:12:35;;;;;;;75.83;41.03;;;;;;;3.41;98.37;103553.97;5058248;28;20709;-72
2022/01/12 06:15:01;;;;;;;77.23;42.70;;;;;;;3.43;98.52;103560.06;5051757;28;20169;-73
2022/01/12 06:17:26;;;;;;;74.83;39.93;;;;;;;3.45;98.71;103568.69;5054088;28;20197;-72
2022/01/12 06:19:52;;;;;;;80.57;40.20;;;;;;;3.44;98.72;103573.59;5058499;28;20203;-72
2022/01/12 06:22:38;;;;;;;77.13;39.43;;;;;;;3.45;98.52;103575.41;5057422;28;20259;-73
2022/01/12 06:25:08;;;;;;;73.33;40.37;;;;;;;3.46;98.73;103580.63;5047130;28;20679;-73
2022/01/12 06:27:34;;;;;;;71.23;38.90;;;;;;;3.49;98.31;103585.06;5051023;28;20212;-73
2022/01/12 06:32:29;;;;;;;72.20;39.13;;;;;;;3.51;98.55;103589.53;5069710;28;20660;-73
2022/01/12 06:34:56;;;;;;;74.07;39.30;;;;;;;3.52;98.38;103591.31;5068488;28;20196;-73
2022/01/12 06:37:22;;;;;;;71.23;37.73;;;;;;;3.53;98.42;103598.13;5068206;28;20197;-73
2022/01/12 06:39:49;;;;;;;68.97;37.27;;;;;;;3.55;98.29;103595.75;5066090;28;20224;-73
2022/01/12 06:42:15;;;;;;;67.33;38.00;;;;;;;3.55;98.11;103599.16;5065275;28;20953;-73
2022/01/12 06:44:41;;;;;;;73.77;39.67;;;;;;;3.57;98.87;103604.38;5068264;28;20200;-72
2022/01/12 06:47:06;;;;;;;68.57;37.17;;;;;;;3.56;98.16;103613.63;5069588;28;20286;-73
2022/01/12 06:49:32;;;;;;;74.80;38.40;;;;;;;3.58;98.76;103614.63;5068074;28;20567;-73
2022/01/12 06:52:00;;;;;;;71.27;37.67;;;;;;;3.59;98.91;103633.28;5068232;28;20195;-73
2022/01/12 06:54:27;;;;;;;77.07;39.47;;;;;;;3.59;98.95;103636.69;5068149;28;20227;-72
2022/01/12 06:56:52;;;;;;;83.13;40.40;;;;;;;3.59;99.22;103643.41;5068135;28;20205;-72
2022/01/12 06:59:18;;;;;;;75.23;40.37;;;;;;;3.59;99.45;103631.63;5067981;28;20238;-73
2022/01/12 07:01:44;;;;;;;84.67;39.40;;;;;;;3.59;98.79;103643.41;5068137;28;20649;-73
2022/01/12 07:04:11;;;;;;;84.70;40.80;;;;;;;3.61;99.34;103640.25;5068090;28;20212;-73
2022/01/12 07:06:37;;;;;;;81.20;40.47;;;;;;;3.62;99.46;103642.03;5067889;28;20278;-73
2022/01/12 07:09:04;;;;;;;90.23;40.37;;;;;;;3.63;99.13;103640.41;5067942;28;20572;-73
2022/01/12 07:11:43;;;;;;;89.10;41.10;;;;;;;3.61;99.16;103655.47;5068173;28;20264;-73
2022/01/12 07:14:18;;;;;;;92.03;41.67;;;;;;;3.63;99.32;103645.47;5068201;28;20209;-73
2022/01/12 07:16:44;;;;;;;80.63;39.80;;;;;;;3.63;99.30;103646.34;5067924;28;20631;-72
2022/01/12 07:19:09;;;;;;;87.17;41.67;;;;;;;3.64;99.53;103650.66;5062077;28;20244;-73
2022/01/12 07:21:34;;;;;;;88.90;40.23;;;;;;;3.63;99.23;103648.88;5050665;28;20689;-73
2022/01/12 07:24:00;;;;;;;88.30;40.20;;;;;;;3.66;99.18;103658.41;5065526;28;20566;-73
2022/01/12 07:26:25;;;;;;;87.33;38.87;;;;;;;3.67;99.39;103660.19;5069283;28;20292;-73
2022/01/12 07:28:51;;;;;;;88.07;40.67;;;;;;;3.65;99.27;103662.59;5069422;28;20239;-73
2022/01/12 07:31:17;;;;;;;90.40;39.30;;;;;;;3.67;99.88;103660.19;5065059;28;20282;-72
2022/01/12 07:33:42;;;;;;;94.77;42.00;;;;;;;3.68;99.40;103670.47;5065758;28;20186;-73
2022/01/12 07:36:08;;;;;;;85.87;38.03;;;;;;;3.69;99.84;103667.16;5068611;28;20219;-73
2022/01/12 07:38:34;;;;;;;89.70;39.03;;;;;;;3.71;99.17;103675.81;5068482;28;20182;-73
2022/01/12 07:40:59;;;;;;;87.87;38.00;;;;;;;3.72;99.63;103674.19;5071479;28;20254;-72
2022/01/12 07:43:24;;;;;;;83.13;37.93;;;;;;;3.74;99.12;103682.81;5071091;28;20209;-73
2022/01/12 07:45:50;;;;;;;87.70;37.83;;;;;;;3.76;99.28;103699.94;5072447;28;20275;-73
2022/01/12 07:48:16;;;;;;;86.40;39.17;;;;;;;3.78;98.96;103703.47;5070893;28;20234;-73
2022/01/12 07:50:44;;;;;;;76.97;34.97;;;;;;;3.80;99.20;103693.50;5052351;28;20182;-73
2022/01/12 07:53:10;;;;;;;75.77;34.20;;;;;;;3.79;99.25;103687.56;5052340;28;20185;-73
2022/01/12 07:55:35;;;;;;;79.07;34.83;;;;;;;3.82;99.03;103692.88;5067570;28;20694;-73
2022/01/12 07:58:01;;;;;;;74.33;35.73;;;;;;;3.85;99.10;103690.66;5068130;28;20209;-72
2022/01/12 08:00:27;;;;;;;78.07;34.60;;;;;;;3.86;99.02;103689.88;5072125;28;20659;-73
2022/01/12 08:02:53;;;;;;;72.47;33.83;;;;;;;3.87;98.84;103698.38;5065274;28;20232;-74
2022/01/12 08:05:19;;;;;;;75.40;35.10;;;;;;;3.89;98.58;103689.28;5070288;28;20189;-72
2022/01/12 08:07:45;;;;;;;68.90;31.33;;;;;;;3.91;98.87;103695.38;5071725;28;20725;-73
2022/01/12 08:10:11;;;;;;;68.73;32.00;;;;;;;3.92;98.23;103692.09;5071585;28;20779;-73
2022/01/12 08:12:37;;;;;;;70.97;31.30;;;;;;;3.92;98.20;103687.03;5071488;28;20193;-72
2022/01/12 08:15:05;;;;;;;71.93;29.47;;;;;;;3.94;98.46;103688.94;5071649;28;20219;-73
2022/01/12 08:17:31;;;;;;;65.13;29.10;;;;;;;3.97;98.55;103694.31;5069327;28;21382;-73
2022/01/12 08:19:57;;;;;;;64.93;30.03;;;;;;;4.01;98.10;103692.94;5068960;28;20217;-72
2022/01/12 08:22:23;;;;;;;66.70;31.50;;;;;;;4.05;97.57;103687.41;5071816;28;20334;-73
2022/01/12 08:24:48;;;;;;;64.47;30.77;;;;;;;4.08;97.64;103682.59;5070309;28;20221;-72
2022/01/12 08:27:14;;;;;;;63.33;29.60;;;;;;;4.08;97.26;103686.03;5071717;28;20208;-73
2022/01/12 08:29:39;;;;;;;64.13;29.17;;;;;;;4.10;96.94;103687.03;5071605;28;20646;-73
2022/01/12 08:32:05;;;;;;;65.13;29.40;;;;;;;4.14;96.80;103686.56;5070152;28;20200;-72
2022/01/12 08:34:30;;;;;;;61.10;28.40;;;;;;;4.15;96.39;103690.88;5071611;28;20635;-75
2022/01/12 08:36:56;;;;;;;64.73;29.13;;;;;;;4.18;96.46;103705.50;5057582;28;20218;-73
2022/01/12 08:39:22;;;;;;;59.23;27.10;;;;;;;4.23;96.52;103709.34;5051921;28;20181;-73
2022/01/12 08:41:47;;;;;;;60.40;28.27;;;;;;;4.25;96.58;103713.81;5051737;28;20243;-73
2022/01/12 08:44:12;;;;;;;58.83;28.27;;;;;;;4.27;96.92;103706.31;5051344;28;20209;-74
2022/01/12 08:46:38;;;;;;;57.87;26.57;;;;;;;4.27;96.31;103699.59;5051248;28;20205;-72
2022/01/12 08:49:04;;;;;;;58.10;26.87;;;;;;;4.32;95.96;103707.66;5067896;28;20185;-73
2022/01/12 08:51:30;;;;;;;50.13;25.07;;;;;;;4.36;95.92;103714.75;5071332;28;20208;-73
2022/01/12 08:53:55;;;;;;;54.17;25.70;;;;;;;4.38;95.70;103721.75;5069825;28;20688;-73
2022/01/12 08:56:20;;;;;;;57.83;27.30;;;;;;;4.38;95.75;103726.81;5071251;28;20701;-73
2022/01/12 08:58:47;;;;;;;55.97;26.00;;;;;;;4.43;95.28;103727.25;5071316;28;20232;-72
2022/01/12 09:01:13;;;;;;;58.90;26.87;;;;;;;4.44;94.91;103734.09;5071005;28;20725;-72
2022/01/12 09:03:39;;;;;;;63.60;27.43;;;;;;;4.42;94.98;103735.63;5071016;28;20323;-72
2022/01/12 09:06:06;;;;;;;61.43;27.67;;;;;;;4.39;95.02;103736.22;5069513;28;20192;-73
2022/01/12 09:08:37;;;;;;;60.47;25.70;;;;;;;4.47;95.28;103744.53;5070823;28;20642;-73
2022/01/12 09:11:03;;;;;;;62.00;27.03;;;;;;;4.54;95.43;103745.22;5070956;28;20196;-73
2022/01/12 09:13:28;;;;;;;52.93;26.57;;;;;;;4.58;94.74;103748.91;5045428;28;20186;-73
2022/01/12 09:15:53;;;;;;;51.03;25.80;;;;;;;4.54;94.62;103742.66;5050500;28;20225;-73
2022/01/12 09:18:19;;;;;;;55.97;25.77;;;;;;;4.68;93.93;103736.28;5050356;28;20182;-73
2022/01/12 09:20:45;;;;;;;57.70;25.30;;;;;;;4.79;93.21;103733.94;5050596;28;20300;-72
2022/01/12 09:23:11;;;;;;;51.93;25.50;;;;;;;4.88;92.86;103738.97;5068308;28;20234;-73
2022/01/12 09:25:39;;;;;;;44.47;23.17;;;;;;;4.99;92.14;103738.25;5071169;28;20729;-72
2022/01/12 09:28:05;;;;;;;45.67;23.87;;;;;;;5.00;91.55;103737.47;5070233;28;20201;-73
2022/01/12 09:30:31;;;;;;;45.23;22.10;;;;;;;4.96;91.52;103731.25;5070579;28;20196;-73
2022/01/12 09:32:56;;;;;;;51.17;23.17;;;;;;;5.03;91.39;103731.06;5070985;28;20185;-74
2022/01/12 09:35:21;;;;;;;49.43;22.60;;;;;;;5.12;92.12;103743.66;5070298;28;20194;-75
2022/01/12 09:37:47;;;;;;;43.20;22.17;;;;;;;5.16;91.58;103748.25;5069476;28;20293;-72
2022/01/12 09:40:13;;;;;;;45.13;22.73;;;;;;;5.18;91.26;103750.16;5070312;28;20258;-74
2022/01/12 09:42:41;;;;;;;48.97;23.43;;;;;;;5.07;91.64;103758.47;5065344;28;20243;-74
2022/01/12 09:45:07;;;;;;;47.23;23.37;;;;;;;5.06;91.30;103756.69;5062026;28;20201;-73
2022/01/12 09:47:34;;;;;;;50.07;23.70;;;;;;;5.08;91.68;103759.38;5063103;28;20229;-73
2022/01/12 09:50:00;;;;;;;49.00;25.73;;;;;;;5.06;91.59;103760.91;5069868;28;20181;-73
2022/01/12 09:52:26;;;;;;;46.50;23.00;;;;;;;5.03;91.29;103758.97;5069982;28;20266;-73
2022/01/12 09:54:51;;;;;;;53.03;26.33;;;;;;;4.99;92.11;103754.38;5069966;28;20221;-73
2022/01/12 09:57:17;;;;;;;48.03;24.90;;;;;;;5.01;91.83;103754.53;5069579;28;20213;-73
2022/01/12 09:59:42;;;;;;;45.73;23.10;;;;;;;4.99;91.34;103762.00;5069492;28;20192;-73
2022/01/12 10:02:19;;;;;;;44.80;24.33;;;;;;;4.99;91.24;103762.00;5067893;28;20263;-73
2022/01/12 10:04:45;;;;;;;48.60;24.40;;;;;;;4.97;91.75;103765.16;5069640;28;20335;-73
2022/01/12 10:07:13;;;;;;;49.33;24.40;;;;;;;4.87;92.04;103768.53;5069350;28;20768;-73
2022/01/12 10:09:45;;;;;;;45.37;23.33;;;;;;;4.94;91.96;103765.78;5069138;28;20193;-73
2022/01/12 10:12:17;;;;;;;49.13;24.40;;;;;;;4.91;92.04;103774.75;5069292;28;20904;-73
2022/01/12 10:14:55;;;;;;;47.57;23.60;;;;;;;4.82;92.19;103792.59;5051841;28;20230;-74
2022/01/12 10:17:36;;;;;;;55.33;25.87;;;;;;;4.90;92.34;103798.34;5067970;28;20718;-73
2022/01/12 10:20:06;;;;;;;52.67;25.83;;;;;;;4.83;92.33;103790.97;5067535;28;20222;-73
2022/01/12 10:22:31;;;;;;;53.47;26.17;;;;;;;4.84;92.23;103791.06;5069262;28;20184;-73
2022/01/12 10:25:00;;;;;;;50.57;24.37;;;;;;;4.89;92.30;103783.88;5069232;28;20689;-73
2022/01/12 10:27:25;;;;;;;53.60;24.97;;;;;;;4.87;92.19;103782.84;5069452;28;20288;-74
2022/01/12 10:30:00;;;;;;;54.13;26.07;;;;;;;4.97;91.62;103786.34;5068929;28;20319;-73
2022/01/12 10:32:26;;;;;;;51.47;25.00;;;;;;;5.06;91.74;103783.75;5069195;28;20196;-73
2022/01/12 10:34:51;;;;;;;49.33;24.23;;;;;;;5.00;92.21;103788.25;5069079;28;20726;-74
2022/01/12 10:37:22;;;;;;;48.37;23.90;;;;;;;4.97;91.90;103783.81;5069032;28;20579;-73
2022/01/12 10:39:50;;;;;;;53.00;23.03;;;;;;;4.98;92.05;103784.72;5067523;28;20274;-73
2022/01/12 10:42:33;;;;;;;48.07;24.93;;;;;;;5.02;92.22;103790.19;5069024;28;20836;-73
2022/01/12 10:45:04;;;;;;;54.63;24.37;;;;;;;4.98;92.05;103792.31;5063894;28;20205;-72
2022/01/12 10:47:32;;;;;;;44.37;23.63;;;;;;;5.03;92.05;103796.16;5041568;28;20609;-73
2022/01/12 10:50:10;;;;;;;52.70;23.07;;;;;;;5.00;91.94;103799.31;5050957;28;20314;-73
2022/01/12 10:52:39;;;;;;;54.40;24.23;;;;;;;4.99;91.84;103795.00;5068909;28;20331;-72
2022/01/12 10:55:07;;;;;;;56.47;25.10;;;;;;;4.98;91.78;103795.72;5069379;28;20193;-72
2022/01/12 10:57:37;;;;;;;49.17;22.93;;;;;;;4.86;92.25;103799.75;5069044;28;20593;-73
2022/01/12 11:00:22;;;;;;;48.00;23.57;;;;;;;4.84;92.45;103803.78;5068741;28;20275;-73
2022/01/12 11:02:50;;;;;;;52.77;24.57;;;;;;;4.83;92.51;103816.34;5069129;28;20630;-73
2022/01/12 11:05:16;;;;;;;52.80;24.77;;;;;;;4.81;92.74;103807.69;5068761;28;20212;-72
2022/01/12 11:07:42;;;;;;;59.00;25.07;;;;;;;4.81;93.01;103821.28;5068850;28;20205;-72
2022/01/12 11:10:10;;;;;;;52.40;24.93;;;;;;;4.83;93.08;103814.69;5068733;28;20230;-72
2022/01/12 11:12:36;;;;;;;49.90;21.87;;;;;;;4.81;92.53;103810.22;5068960;28;20208;-72
2022/01/12 11:15:13;;;;;;;48.30;23.10;;;;;;;4.80;92.43;103808.44;5070185;28;20185;-72
2022/01/12 11:17:40;;;;;;;46.20;24.00;;;;;;;4.87;92.20;103800.59;5072738;28;20244;-72
2022/01/12 11:20:22;;;;;;;42.83;22.10;;;;;;;4.85;92.05;103792.88;5072361;28;20571;-72
2022/01/12 11:22:57;;;;;;;50.00;22.47;;;;;;;4.85;92.29;103795.44;5051446;28;20174;-72
2022/01/12 11:25:30;;;;;;;47.37;23.73;;;;;;;4.88;92.40;103782.13;5053097;28;20813;-71
2022/01/12 11:28:09;;;;;;;56.23;23.90;;;;;;;5.10;93.05;103776.53;5052733;28;20705;-72
2022/01/12 11:30:37;;;;;;;42.60;21.60;;;;;;;5.20;92.67;103775.69;5052678;28;20185;-73
2022/01/12 11:33:05;;;;;;;40.13;19.57;;;;;;;5.24;92.08;103783.69;5052647;28;20643;-73
2022/01/12 11:35:33;;;;;;;37.73;20.93;;;;;;;5.15;91.35;103776.94;5065224;28;20197;-73
2022/01/12 11:38:00;;;;;;;39.50;19.90;;;;;;;5.07;91.12;103775.38;5071912;28;20204;-73
2022/01/12 11:40:42;;;;;;;37.27;19.73;;;;;;;5.04;91.21;103770.00;5072344;28;20192;-73
2022/01/12 11:43:22;;;;;;;39.53;18.73;;;;;;;5.06;91.54;103766.84;5072219;28;20234;-73
2022/01/12 11:46:02;;;;;;;35.30;17.77;;;;;;;5.05;91.69;103772.69;5059559;28;20225;-73
2022/01/12 11:48:32;;;;;;;34.77;17.40;;;;;;;5.06;91.37;103763.44;5053235;28;20178;-73
2022/01/12 11:50:58;;;;;;;37.40;18.10;;;;;;;5.08;91.31;103765.34;5063611;28;20201;-73
2022/01/12 11:53:23;;;;;;;36.37;18.00;;;;;;;5.08;91.01;103754.28;5072173;28;20195;-73
2022/01/12 11:55:48;;;;;;;38.43;18.47;;;;;;;5.06;90.60;103755.81;5071864;28;20238;-73
2022/01/12 11:58:18;;;;;;;40.93;18.10;;;;;;;5.05;91.43;103770.16;5062781;28;20578;-73
2022/01/12 12:00:44;;;;;;;36.47;17.03;;;;;;;5.10;91.37;103768.00;5072145;28;20188;-73
2022/01/12 12:03:15;;;;;;;33.30;14.33;;;;;;;5.08;91.06;103772.06;5070749;28;20188;-73
2022/01/12 12:05:41;;;;;;;37.03;17.27;;;;;;;5.10;91.11;103776.53;5071981;28;20192;-73
2022/01/12 12:08:06;;;;;;;38.67;16.67;;;;;;;5.09;91.25;103769.66;5070224;28;20576;-71
2022/01/12 12:10:37;;;;;;;34.90;15.57;;;;;;;5.22;91.68;103761.47;5070155;28;20211;-73
2022/01/12 12:13:04;;;;;;;32.73;15.60;;;;;;;5.20;90.67;103756.25;5071699;28;20189;-72
2022/01/12 12:15:29;;;;;;;33.27;15.50;;;;;;;5.29;91.22;103759.59;5071581;28;20709;-73
2022/01/12 12:17:58;;;;;;;39.73;15.47;;;;;;;5.48;90.94;103757.88;5071673;28;20201;-72
2022/01/12 12:20:24;;;;;;;34.50;15.03;;;;;;;5.58;89.84;103757.91;5071809;28;20669;-73
2022/01/12 12:22:51;;;;;;;30.60;14.63;;;;;;;5.83;88.42;103751.69;5071743;28;20186;-73
2022/01/12 12:25:22;;;;;;;31.40;14.73;;;;;;;6.70;85.43;103736.16;5071030;28;20213;-73
2022/01/12 12:28:03;;;;;;;26.13;13.77;;;;;;;8.37;78.04;103734.09;5071478;28;20686;-73
2022/01/12 12:30:32;;;;;;;25.30;12.20;;;;;;;9.39;73.39;103742.56;5071311;28;20646;-73
2022/01/12 12:33:08;;;;;;;27.70;12.23;;;;;;;10.19;69.79;103737.97;5071499;28;20218;-73
2022/01/12 12:35:35;;;;;;;25.13;12.23;;;;;;;9.20;72.33;103747.16;5071316;28;20165;-73
2022/01/12 12:38:19;;;;;;;23.47;11.43;;;;;;;8.00;76.64;103747.38;5071042;28;20685;-74